createdAt,value
2022-09-23T00:01:15.116Z,90.56
2022-09-23T00:03:45.549Z,90.31
2022-09-23T00:06:18.243Z,90.16
2022-09-23T00:08:45.143Z,89.98
2022-09-23T00:11:17.481Z,89.98
2022-09-23T00:13:46.206Z,89.92
2022-09-23T00:16:19.724Z,89.95
2022-09-23T00:18:46.529Z,90.17
2022-09-23T00:21:14.736Z,90.21
2022-09-23T00:23:43.012Z,90.29
2022-09-23T00:26:12.868Z,89.87
2022-09-23T00:28:40.624Z,89.94
2022-09-23T00:31:10.422Z,89.95
2022-09-23T00:33:37.442Z,89.99
2022-09-23T00:36:07.213Z,90.03
2022-09-23T00:38:34.239Z,89.95
2022-09-23T00:41:01.038Z,90.22
2022-09-23T00:43:42.891Z,90.16
2022-09-23T00:46:14.233Z,90.11
2022-09-23T00:48:43.355Z,90.27
2022-09-23T00:51:17.943Z,90.12
2022-09-23T00:53:48.581Z,90.02
2022-09-23T00:56:15.995Z,90.14
2022-09-23T00:58:46.857Z,90.18
2022-09-23T01:01:14.492Z,89.85
2022-09-23T01:03:45.808Z,90.07
2022-09-23T01:06:13.370Z,90.32
2022-09-23T01:08:42.979Z,90.38
2022-09-23T01:11:14.774Z,90.35
2022-09-23T01:14:05.996Z,90.26
2022-09-23T01:16:44.109Z,90.50
2022-09-23T01:19:47.861Z,90.60
2022-09-23T01:22:21.791Z,90.59
2022-09-23T01:24:59.933Z,90.54
2022-09-23T01:27:36.554Z,90.65
2022-09-23T01:30:17.972Z,90.74
2022-09-23T01:33:05.037Z,91.28
2022-09-23T01:35:56.216Z,91.24
2022-09-23T01:39:00.259Z,91.17
2022-09-23T01:41:45.561Z,91.16
2022-09-23T01:44:21.593Z,90.99
2022-09-23T01:46:59.867Z,91.11
2022-09-23T01:49:37.764Z,91.21
2022-09-23T01:52:15.708Z,91.26
2022-09-23T01:55:10.034Z,91.50
2022-09-23T01:58:01.105Z,91.55
2022-09-23T02:00:32.039Z,91.91
2022-09-23T02:03:05.996Z,92.08
2022-09-23T02:05:38.182Z,92.12
2022-09-23T02:08:08.813Z,91.87
2022-09-23T02:10:45.618Z,91.80
2022-09-23T02:13:20.619Z,91.67
2022-09-23T02:15:51.905Z,91.56
2022-09-23T02:18:28.943Z,91.57
2022-09-23T02:21:03.470Z,91.69
2022-09-23T02:23:36.811Z,91.50
2022-09-23T02:26:26.953Z,91.60
2022-09-23T02:29:08.130Z,91.69
2022-09-23T02:31:55.168Z,91.82
2022-09-23T02:34:55.663Z,91.85
2022-09-23T02:37:54.463Z,92.06
2022-09-23T02:40:40.869Z,91.96
2022-09-23T02:43:15.129Z,92.44
2022-09-23T02:45:41.890Z,93.09
2022-09-23T02:48:34.615Z,92.93
2022-09-23T02:51:03.667Z,92.75
2022-09-23T02:53:33.963Z,92.88
2022-09-23T02:56:02.210Z,92.70
2022-09-23T02:58:30.004Z,92.89
2022-09-23T03:01:11.638Z,93.15
2022-09-23T03:03:53.860Z,93.25
2022-09-23T03:06:26.696Z,92.89
2022-09-23T03:09:01.183Z,92.87
2022-09-23T03:11:28.503Z,92.93
2022-09-23T03:14:19.838Z,93.02
2022-09-23T03:16:59.193Z,92.92
2022-09-23T03:19:34.831Z,92.91
2022-09-23T03:22:12.640Z,93.36
2022-09-23T03:24:44.901Z,93.41
2022-09-23T03:27:18.764Z,93.32
2022-09-23T03:29:51.238Z,93.08
2022-09-23T03:32:21.867Z,93.06
2022-09-23T03:34:52.260Z,92.99
2022-09-23T03:37:44.156Z,92.90
2022-09-23T03:40:35.313Z,92.71
2022-09-23T03:43:04.547Z,92.47
2022-09-23T03:45:34.021Z,92.41
2022-09-23T03:48:01.515Z,92.47
2022-09-23T03:50:28.592Z,92.23
2022-09-23T03:52:55.928Z,92.31
2022-09-23T03:55:22.770Z,92.21
2022-09-23T03:57:49.883Z,92.20
2022-09-23T04:00:16.772Z,92.19
2022-09-23T04:02:44.412Z,91.98
2022-09-23T04:05:13.387Z,91.93
2022-09-23T04:07:41.105Z,91.90
2022-09-23T04:10:10.030Z,91.84
2022-09-23T04:12:37.830Z,91.99
2022-09-23T04:15:05.162Z,92.20
2022-09-23T04:17:31.980Z,92.12
2022-09-23T04:19:58.878Z,92.40
2022-09-23T04:22:27.585Z,92.43
2022-09-23T04:24:54.790Z,92.51
2022-09-23T04:27:21.675Z,92.27
2022-09-23T04:29:48.443Z,92.50
2022-09-23T04:32:15.315Z,92.23
2022-09-23T04:34:43.037Z,92.20
2022-09-23T04:37:09.838Z,92.26
2022-09-23T04:39:36.598Z,92.41
2022-09-23T04:42:04.338Z,92.60
2022-09-23T04:44:31.202Z,92.75
2022-09-23T04:46:58.529Z,92.74
2022-09-23T04:49:26.270Z,92.62
2022-09-23T04:51:53.153Z,92.50
2022-09-23T04:54:20.031Z,92.53
2022-09-23T04:56:46.882Z,92.50
2022-09-23T04:59:15.822Z,92.51
2022-09-23T05:01:43.657Z,92.86
2022-09-23T05:04:13.967Z,92.72
2022-09-23T05:06:45.106Z,92.94
2022-09-23T05:09:16.675Z,93.28
2022-09-23T05:11:43.987Z,93.14
2022-09-23T05:14:11.004Z,93.04
2022-09-23T05:16:37.849Z,92.86
2022-09-23T05:19:05.484Z,92.84
2022-09-23T05:21:32.368Z,93.00
2022-09-23T05:24:00.869Z,93.16
2022-09-23T05:26:30.920Z,93.24
2022-09-23T05:28:58.521Z,93.35
2022-09-23T05:31:30.075Z,93.18
2022-09-23T05:33:58.977Z,93.64
2022-09-23T05:36:27.931Z,93.64
2022-09-23T05:38:56.896Z,93.49
2022-09-23T05:41:25.322Z,93.60
2022-09-23T05:43:54.026Z,93.66
2022-09-23T05:46:23.428Z,93.66
2022-09-23T05:48:51.244Z,93.83
2022-09-23T05:51:26.423Z,93.59
2022-09-23T05:53:58.342Z,93.30
2022-09-23T05:56:27.584Z,93.32
2022-09-23T05:58:56.584Z,93.59
2022-09-23T06:01:28.259Z,93.68
2022-09-23T06:03:57.157Z,93.74
2022-09-23T06:06:36.255Z,93.90
2022-09-23T06:09:04.537Z,93.97
2022-09-23T06:11:32.930Z,94.00
2022-09-23T06:14:09.755Z,93.98
2022-09-23T06:16:36.782Z,94.43
2022-09-23T06:19:07.311Z,94.34
2022-09-23T06:21:36.331Z,93.85
2022-09-23T06:24:04.093Z,93.24
2022-09-23T06:26:33.925Z,93.07
2022-09-23T06:29:04.769Z,93.20
2022-09-23T06:31:33.044Z,93.08
2022-09-23T06:34:09.677Z,93.05
2022-09-23T06:36:43.973Z,92.77
2022-09-23T06:39:15.781Z,92.68
2022-09-23T06:41:44.100Z,92.42
2022-09-23T06:44:11.041Z,91.68
2022-09-23T06:46:37.942Z,91.49
2022-09-23T06:49:04.848Z,91.00
2022-09-23T06:51:32.115Z,90.36
2022-09-23T06:53:59.042Z,89.51
2022-09-23T06:56:25.979Z,88.65
2022-09-23T06:58:53.003Z,87.29
2022-09-23T07:01:20.072Z,85.49
2022-09-23T07:03:48.434Z,84.56
2022-09-23T07:06:17.142Z,83.96
2022-09-23T07:08:47.178Z,82.19
2022-09-23T07:11:15.433Z,82.17
2022-09-23T07:13:42.756Z,81.58
2022-09-23T07:16:11.138Z,80.37
2022-09-23T07:18:39.016Z,78.79
2022-09-23T07:21:15.240Z,77.60
2022-09-23T07:23:43.327Z,77.12
2022-09-23T07:26:10.400Z,75.96
2022-09-23T07:28:38.400Z,75.50
2022-09-23T07:31:07.871Z,75.47
2022-09-23T07:33:37.389Z,73.66
2022-09-23T07:36:10.727Z,71.81
2022-09-23T07:38:41.499Z,71.64
2022-09-23T07:41:13.682Z,70.80
2022-09-23T07:43:41.211Z,70.35
2022-09-23T07:46:11.199Z,69.38
2022-09-23T07:48:38.974Z,68.80
2022-09-23T07:51:21.894Z,65.04
2022-09-23T07:53:50.034Z,64.95
2022-09-23T07:56:19.396Z,64.82
2022-09-23T07:59:00.170Z,63.68
2022-09-23T08:01:33.850Z,64.51
2022-09-23T08:04:04.138Z,61.08
2022-09-23T08:06:31.677Z,60.95
2022-09-23T08:09:00.079Z,61.30
2022-09-23T08:11:28.271Z,61.41
2022-09-23T08:13:55.108Z,58.55
2022-09-23T08:16:22.209Z,59.27
2022-09-23T08:18:49.567Z,57.77
2022-09-23T08:21:23.172Z,56.73
2022-09-23T08:23:50.803Z,55.18
2022-09-23T08:26:21.583Z,56.33
2022-09-23T08:28:50.303Z,56.30
2022-09-23T08:31:17.311Z,56.25
2022-09-23T08:33:44.510Z,55.68
2022-09-23T08:36:11.602Z,54.62
2022-09-23T08:38:38.590Z,54.07
2022-09-23T08:41:17.302Z,54.66
2022-09-23T08:43:49.989Z,53.33
2022-09-23T08:46:24.131Z,51.25
2022-09-23T08:48:52.395Z,50.86
2022-09-23T08:51:51.337Z,50.19
2022-09-23T08:54:18.343Z,50.87
2022-09-23T08:56:52.256Z,52.66
2022-09-23T08:59:37.050Z,52.19
2022-09-23T09:02:20.278Z,50.98
2022-09-23T09:04:54.513Z,51.42
2022-09-23T09:07:36.577Z,50.65
2022-09-23T09:10:15.238Z,50.77
2022-09-23T09:12:51.341Z,51.20
2022-09-23T09:15:25.153Z,48.54
2022-09-23T09:18:11.431Z,49.56
2022-09-23T09:20:59.644Z,47.83
2022-09-23T09:23:38.801Z,48.09
2022-09-23T09:26:06.428Z,45.84
2022-09-23T09:28:45.148Z,45.90
2022-09-23T09:31:12.122Z,45.11
2022-09-23T09:33:58.297Z,46.73
2022-09-23T09:36:40.325Z,46.69
2022-09-23T09:39:16.538Z,46.82
2022-09-23T09:41:49.832Z,45.83
2022-09-23T09:44:45.077Z,44.62
2022-09-23T09:47:34.287Z,44.34
2022-09-23T09:50:04.223Z,43.81
2022-09-23T09:52:31.828Z,44.10
2022-09-23T09:55:13.844Z,44.63
2022-09-23T09:57:53.335Z,43.53
2022-09-23T10:00:26.412Z,41.56
2022-09-23T10:03:01.122Z,41.71
2022-09-23T10:05:49.215Z,41.77
2022-09-23T10:08:26.094Z,45.44
2022-09-23T10:11:01.478Z,46.22
2022-09-23T10:13:30.169Z,42.78
2022-09-23T10:16:04.073Z,42.55
2022-09-23T10:18:38.161Z,43.42
2022-09-23T10:21:13.328Z,44.39
2022-09-23T10:23:48.667Z,45.81
2022-09-23T10:26:18.626Z,47.68
2022-09-23T10:28:55.921Z,49.61
2022-09-23T10:31:25.031Z,49.27
2022-09-23T10:33:55.586Z,49.40
2022-09-23T10:36:22.460Z,48.75
2022-09-23T10:38:55.038Z,48.58
2022-09-23T10:41:54.667Z,48.60
2022-09-23T10:45:02.712Z,48.78
2022-09-23T10:47:42.004Z,48.95
2022-09-23T10:50:29.710Z,48.18
2022-09-23T10:53:05.091Z,47.15
2022-09-23T10:56:01.075Z,46.06
2022-09-23T10:58:50.487Z,45.40
2022-09-23T11:01:17.398Z,44.29
2022-09-23T11:04:06.074Z,42.98
2022-09-23T11:06:58.661Z,37.63
2022-09-23T11:10:18.451Z,37.06
2022-09-23T11:13:15.947Z,35.44
2022-09-23T11:16:15.118Z,34.89
2022-09-23T11:18:56.838Z,33.19
2022-09-23T11:21:58.397Z,35.10
2022-09-23T11:24:58.423Z,31.80
2022-09-23T11:27:57.275Z,29.84
2022-09-23T11:30:40.393Z,30.86
2022-09-23T11:33:27.998Z,31.24
2022-09-23T11:36:01.960Z,31.68
2022-09-23T11:38:35.546Z,32.06
2022-09-23T11:41:20.222Z,34.08
2022-09-23T11:43:52.356Z,33.24
2022-09-23T11:47:08.142Z,33.89
2022-09-23T11:49:53.852Z,37.67
2022-09-23T11:52:27.663Z,38.79
2022-09-23T11:55:08.085Z,40.50
2022-09-23T11:57:49.289Z,41.86
2022-09-23T12:00:20.808Z,42.55
2022-09-23T12:03:38.218Z,43.26
2022-09-23T12:06:16.530Z,43.51
2022-09-23T12:08:44.489Z,44.65
2022-09-23T12:11:23.327Z,44.67
2022-09-23T12:14:27.139Z,43.82
2022-09-23T12:16:58.202Z,43.28
2022-09-23T12:19:43.892Z,42.35
2022-09-23T12:22:39.412Z,42.90
2022-09-23T12:25:10.399Z,42.77
2022-09-23T12:27:50.457Z,42.42
2022-09-23T12:30:25.435Z,41.24
2022-09-23T12:32:53.010Z,41.67
2022-09-23T12:35:24.308Z,41.18
2022-09-23T12:37:52.745Z,39.66
2022-09-23T12:40:43.868Z,35.95
2022-09-23T12:43:31.467Z,34.66
2022-09-23T12:46:27.375Z,30.88
2022-09-23T12:48:58.114Z,30.03
2022-09-23T12:51:30.394Z,30.62
2022-09-23T12:54:04.457Z,29.77
2022-09-23T12:56:31.224Z,30.06
2022-09-23T12:59:26.099Z,29.33
2022-09-23T13:01:54.190Z,28.50
2022-09-23T13:05:01.834Z,28.44
2022-09-23T13:07:34.196Z,24.55
2022-09-23T13:10:09.129Z,27.69
2022-09-23T13:12:39.481Z,26.63
2022-09-23T13:15:17.276Z,32.25
2022-09-23T13:17:44.868Z,35.55
2022-09-23T13:20:21.177Z,36.24
2022-09-23T13:22:54.023Z,37.54
2022-09-23T13:25:29.425Z,38.51
2022-09-23T13:28:00.544Z,38.91
2022-09-23T13:30:27.995Z,39.28
2022-09-23T13:33:13.974Z,39.55
2022-09-23T13:35:50.718Z,40.42
2022-09-23T13:38:26.186Z,41.30
2022-09-23T13:41:21.589Z,40.87
2022-09-23T13:43:52.118Z,42.63
2022-09-23T13:46:24.574Z,43.39
2022-09-23T13:48:54.765Z,43.47
2022-09-23T13:51:27.091Z,44.49
2022-09-23T13:53:55.691Z,43.82
2022-09-23T13:56:24.100Z,45.00
2022-09-23T13:58:52.326Z,45.38
2022-09-23T14:01:35.939Z,44.76
2022-09-23T14:04:03.078Z,45.12
2022-09-23T14:06:31.608Z,45.68
2022-09-23T14:09:01.554Z,45.66
2022-09-23T14:11:32.045Z,45.21
2022-09-23T14:14:03.567Z,44.93
2022-09-23T14:16:30.438Z,45.34
2022-09-23T14:19:00.609Z,45.68
2022-09-23T14:21:27.395Z,46.26
2022-09-23T14:23:54.339Z,47.40
2022-09-23T14:26:24.130Z,46.75
2022-09-23T14:28:52.313Z,46.43
2022-09-23T14:31:19.362Z,46.75
2022-09-23T14:33:46.994Z,47.45
2022-09-23T14:36:35.909Z,48.03
2022-09-23T14:39:08.551Z,49.02
2022-09-23T14:41:38.675Z,48.94
2022-09-23T14:44:07.523Z,49.89
2022-09-23T14:46:37.926Z,49.35
2022-09-23T14:49:11.817Z,49.78
2022-09-23T14:51:45.363Z,50.76
2022-09-23T14:54:34.766Z,51.09
2022-09-23T14:57:28.029Z,51.88
2022-09-23T15:00:06.750Z,52.67
2022-09-23T15:02:39.359Z,52.89
2022-09-23T15:05:23.778Z,52.96
2022-09-23T15:07:56.065Z,53.31
2022-09-23T15:10:27.850Z,53.16
2022-09-23T15:13:05.311Z,53.50
2022-09-23T15:15:32.372Z,53.48
2022-09-23T15:18:08.103Z,54.27
2022-09-23T15:20:35.984Z,55.91
2022-09-23T15:23:02.810Z,56.16
2022-09-23T15:25:35.604Z,55.70
2022-09-23T15:28:08.314Z,54.56
2022-09-23T15:30:36.234Z,54.30
2022-09-23T15:33:03.104Z,54.03
2022-09-23T15:35:32.270Z,54.11
2022-09-23T15:38:01.724Z,54.60
2022-09-23T15:40:34.256Z,54.83
2022-09-23T15:43:20.734Z,55.10
2022-09-23T15:45:54.363Z,55.44
2022-09-23T15:48:27.460Z,55.03
2022-09-23T15:50:54.807Z,55.08
2022-09-23T15:53:27.834Z,55.25
2022-09-23T15:55:54.655Z,54.80
2022-09-23T15:58:27.491Z,54.81
2022-09-23T16:00:57.152Z,55.34
2022-09-23T16:03:28.513Z,56.04
2022-09-23T16:06:00.131Z,57.13
2022-09-23T16:08:28.253Z,57.37
2022-09-23T16:10:55.460Z,57.99
2022-09-23T16:13:23.051Z,59.41
2022-09-23T16:15:50.115Z,59.01
2022-09-23T16:18:17.065Z,59.54
2022-09-23T16:20:45.882Z,60.33
2022-09-23T16:23:34.534Z,61.62
2022-09-23T16:26:25.013Z,62.63
2022-09-23T16:28:54.837Z,63.76
2022-09-23T16:31:25.247Z,64.37
2022-09-23T16:33:53.293Z,65.10
2022-09-23T16:36:37.868Z,66.11
2022-09-23T16:39:07.485Z,67.20
2022-09-23T16:41:34.346Z,67.89
2022-09-23T16:44:04.450Z,68.27
2022-09-23T16:46:31.490Z,68.74
2022-09-23T16:48:58.872Z,69.19
2022-09-23T16:51:31.700Z,69.97
2022-09-23T16:54:00.094Z,70.82
2022-09-23T16:56:31.166Z,71.42
2022-09-23T16:58:58.051Z,71.88
2022-09-23T17:01:46.384Z,72.09
2022-09-23T17:04:14.450Z,72.60
2022-09-23T17:06:45.112Z,73.60
2022-09-23T17:09:12.254Z,74.29
2022-09-23T17:11:39.125Z,74.40
2022-09-23T17:14:06.976Z,74.20
2022-09-23T17:16:35.247Z,74.77
2022-09-23T17:19:10.579Z,75.44
2022-09-23T17:21:37.540Z,75.72
2022-09-23T17:24:04.833Z,75.92
2022-09-23T17:26:32.229Z,76.82
2022-09-23T17:29:00.371Z,76.96
2022-09-23T17:31:27.470Z,77.74
2022-09-23T17:33:54.719Z,78.31
2022-09-23T17:36:22.084Z,77.98
2022-09-23T17:38:53.638Z,78.26
2022-09-23T17:41:20.853Z,78.47
2022-09-23T17:43:48.416Z,78.57
2022-09-23T17:46:19.286Z,78.96
2022-09-23T17:48:46.715Z,79.47
2022-09-23T17:51:16.136Z,79.94
2022-09-23T17:53:45.518Z,79.94
2022-09-23T17:56:21.225Z,80.22
2022-09-23T17:58:49.536Z,80.52
2022-09-23T18:01:20.751Z,80.58
2022-09-23T18:03:48.518Z,80.84
2022-09-23T18:06:20.881Z,80.92
2022-09-23T18:08:49.566Z,81.66
2022-09-23T18:11:27.610Z,81.90
2022-09-23T18:14:00.376Z,81.56
2022-09-23T18:16:30.839Z,82.43
2022-09-23T18:19:00.460Z,82.44
2022-09-23T18:21:30.935Z,82.79
2022-09-23T18:24:15.644Z,82.71
2022-09-23T18:26:45.857Z,82.97
2022-09-23T18:31:39.770Z,83.42
2022-09-23T18:34:11.150Z,83.47
2022-09-23T18:36:38.168Z,83.29
2022-09-23T18:39:05.683Z,83.47
2022-09-23T18:41:32.869Z,83.70
2022-09-23T18:44:00.143Z,83.63
2022-09-23T18:46:30.208Z,84.43
2022-09-23T18:49:16.771Z,84.49
2022-09-23T18:51:55.802Z,85.15
2022-09-23T18:54:24.313Z,85.23
2022-09-23T18:56:52.851Z,85.18
2022-09-23T18:59:23.868Z,85.39
2022-09-23T19:01:51.168Z,85.38
2022-09-23T19:04:20.303Z,85.37
2022-09-23T19:06:47.977Z,85.91
2022-09-23T19:09:16.370Z,85.85
2022-09-23T19:11:44.425Z,85.75
2022-09-23T19:14:11.914Z,86.09
2022-09-23T19:16:41.200Z,86.10
2022-09-23T19:19:08.771Z,86.45
2022-09-23T19:21:37.061Z,86.47
2022-09-23T19:24:06.478Z,86.33
2022-09-23T19:26:37.588Z,86.39
2022-09-23T19:29:08.218Z,86.46
2022-09-23T19:31:40.078Z,87.04
2022-09-23T19:34:11.585Z,87.00
2022-09-23T19:36:42.241Z,87.02
2022-09-23T19:39:16.620Z,87.14
2022-09-23T19:41:44.179Z,87.37
2022-09-23T19:44:11.852Z,87.46
2022-09-23T19:46:40.896Z,87.76
2022-09-23T19:49:08.275Z,87.52
2022-09-23T19:51:35.628Z,87.71
2022-09-23T19:54:04.860Z,87.53
2022-09-23T19:56:33.236Z,87.25
2022-09-23T19:59:03.041Z,87.34
2022-09-23T20:01:32.012Z,87.34
2022-09-23T20:03:59.764Z,87.49
2022-09-23T20:06:31.913Z,87.59
2022-09-23T20:09:00.894Z,87.69
2022-09-23T20:11:28.822Z,87.66
2022-09-23T20:14:01.330Z,87.42
2022-09-23T20:16:32.180Z,87.54
2022-09-23T20:19:00.001Z,87.75
2022-09-23T20:21:28.206Z,87.80
2022-09-23T20:23:55.323Z,87.74
2022-09-23T20:26:40.885Z,87.86
2022-09-23T20:29:08.982Z,88.06
2022-09-23T20:31:36.115Z,87.72
2022-09-23T20:34:05.695Z,87.95
2022-09-23T20:36:34.064Z,87.88
2022-09-23T20:39:04.048Z,88.03
2022-09-23T20:41:33.628Z,88.11
2022-09-23T20:44:00.681Z,88.32
2022-09-23T20:46:28.763Z,88.34
2022-09-23T20:48:56.880Z,88.23
2022-09-23T20:51:24.820Z,88.45
2022-09-23T20:53:52.957Z,89.00
2022-09-23T20:56:23.381Z,88.73
2022-09-23T20:58:52.530Z,88.74
2022-09-23T21:01:19.485Z,88.68
2022-09-23T21:03:50.166Z,88.74
2022-09-23T21:06:19.471Z,88.86
2022-09-23T21:08:46.714Z,88.83
2022-09-23T21:11:17.940Z,88.91
2022-09-23T21:13:46.316Z,89.21
2022-09-23T21:16:14.288Z,89.26
2022-09-23T21:18:41.120Z,89.45
2022-09-23T21:21:08.125Z,89.78
2022-09-23T21:23:38.037Z,89.53
2022-09-23T21:26:04.844Z,89.38
2022-09-23T21:28:33.425Z,89.72
2022-09-23T21:31:02.318Z,89.61
2022-09-23T21:33:30.439Z,89.38
2022-09-23T21:36:03.441Z,89.38
2022-09-23T21:38:33.630Z,89.67
2022-09-23T21:41:02.368Z,89.56
2022-09-23T21:43:33.271Z,89.34
2022-09-23T21:46:05.689Z,89.35
2022-09-23T21:48:34.840Z,89.66
2022-09-23T21:51:03.016Z,89.64
2022-09-23T21:53:31.722Z,89.84
2022-09-23T21:56:21.493Z,89.94
2022-09-23T21:58:48.974Z,89.57
2022-09-23T22:01:18.727Z,89.83
2022-09-23T22:04:08.133Z,89.84
2022-09-23T22:06:38.143Z,89.60
2022-09-23T22:09:08.920Z,89.51
2022-09-23T22:11:55.792Z,89.91
2022-09-23T22:14:25.526Z,90.06
2022-09-23T22:16:57.569Z,89.80
2022-09-23T22:19:26.652Z,89.97
2022-09-23T22:21:54.022Z,90.07
2022-09-23T22:24:20.829Z,90.27
2022-09-23T22:26:47.583Z,90.16
2022-09-23T22:29:34.588Z,89.96
2022-09-23T22:32:21.772Z,89.79
2022-09-23T22:34:51.043Z,89.80
2022-09-23T22:37:32.370Z,90.08
2022-09-23T22:39:59.169Z,89.86
2022-09-23T22:42:27.546Z,90.20
2022-09-23T22:44:55.629Z,90.38
2022-09-23T22:47:22.544Z,90.57
2022-09-23T22:49:52.326Z,90.46
2022-09-23T22:52:24.172Z,90.33
2022-09-23T22:54:52.223Z,90.57
2022-09-23T22:57:19.613Z,90.63
2022-09-23T22:59:50.253Z,90.84
2022-09-23T23:02:18.961Z,90.29
2022-09-23T23:04:49.850Z,90.08
2022-09-23T23:07:22.385Z,90.13
2022-09-23T23:09:50.617Z,90.38
2022-09-23T23:12:20.467Z,90.31
2022-09-23T23:14:48.238Z,90.39
2022-09-23T23:17:15.090Z,90.45
2022-09-23T23:19:41.909Z,90.63
2022-09-23T23:22:08.667Z,90.48
2022-09-23T23:24:35.419Z,90.59
2022-09-23T23:27:05.339Z,90.72
2022-09-23T23:29:32.223Z,90.69
2022-09-23T23:31:59.059Z,90.72
2022-09-23T23:34:25.961Z,90.86
2022-09-23T23:36:55.090Z,90.94
2022-09-23T23:39:24.029Z,90.65
2022-09-23T23:41:55.134Z,90.58
2022-09-23T23:44:23.910Z,90.58
2022-09-23T23:46:51.257Z,90.47
2022-09-23T23:49:18.126Z,90.41
2022-09-23T23:51:44.945Z,90.67
2022-09-23T23:54:12.511Z,90.68
2022-09-23T23:56:39.518Z,90.75
2022-09-23T23:59:06.530Z,90.78
